createdAt,value
2019-05-20T00:00:05.288Z,11.33
2019-05-20T00:02:34.322Z,11.17
2019-05-20T00:05:03.460Z,10.93
2019-05-20T00:07:32.551Z,12.30
2019-05-20T00:10:01.557Z,11.43
2019-05-20T00:12:30.501Z,11.43
2019-05-20T00:14:59.574Z,11.23
2019-05-20T00:17:28.899Z,11.70
2019-05-20T00:19:58.048Z,12.30
2019-05-20T00:22:27.109Z,11.80
2019-05-20T00:24:56.103Z,11.37
2019-05-20T00:27:25.148Z,11.67
2019-05-20T00:29:54.118Z,11.43
2019-05-20T00:32:22.986Z,12.33
2019-05-20T00:34:52.084Z,11.90
2019-05-20T00:37:21.021Z,12.97
2019-05-20T00:39:49.939Z,12.43
2019-05-20T00:42:18.903Z,12.63
2019-05-20T00:44:47.870Z,12.67
2019-05-20T00:47:16.862Z,11.80
2019-05-20T00:49:45.762Z,12.03
2019-05-20T00:52:14.780Z,13.00
2019-05-20T00:54:43.979Z,12.70
2019-05-20T00:57:12.959Z,12.27
2019-05-20T00:59:42.065Z,13.27
2019-05-20T01:02:11.182Z,13.60
2019-05-20T01:04:40.111Z,12.40
2019-05-20T01:07:09.146Z,12.87
2019-05-20T01:09:38.031Z,13.53
2019-05-20T01:12:07.087Z,13.97
2019-05-20T01:14:36.060Z,13.67
2019-05-20T01:17:05.422Z,12.73
2019-05-20T01:19:34.302Z,13.40
2019-05-20T01:22:03.218Z,12.47
2019-05-20T01:24:32.110Z,13.47
2019-05-20T01:27:01.001Z,13.90
2019-05-20T01:29:29.956Z,13.93
2019-05-20T01:31:58.867Z,14.03
2019-05-20T01:34:27.888Z,13.60
2019-05-20T01:36:56.934Z,19.83
2019-05-20T01:39:25.912Z,15.67
2019-05-20T01:41:55.015Z,16.07
2019-05-20T01:44:23.918Z,14.77
2019-05-20T01:46:52.895Z,15.70
2019-05-20T01:49:21.833Z,13.67
2019-05-20T01:51:50.795Z,13.50
2019-05-20T01:54:19.728Z,16.17
2019-05-20T01:56:48.697Z,15.00
2019-05-20T01:59:17.646Z,13.60
2019-05-20T02:01:46.599Z,15.00
2019-05-20T02:04:15.482Z,17.07
2019-05-20T02:06:44.452Z,14.83
2019-05-20T02:09:13.479Z,14.13
2019-05-20T02:11:42.529Z,16.53
2019-05-20T02:14:16.464Z,17.67
2019-05-20T02:16:45.489Z,17.30
2019-05-20T02:19:14.495Z,17.17
2019-05-20T02:21:43.467Z,15.93
2019-05-20T02:24:12.422Z,15.73
2019-05-20T02:26:41.342Z,14.23
2019-05-20T02:29:10.239Z,17.07
2019-05-20T02:31:39.271Z,16.27
2019-05-20T02:34:08.272Z,17.13
2019-05-20T02:36:37.348Z,16.27
2019-05-20T02:39:07.283Z,16.43
2019-05-20T02:41:36.419Z,16.23
2019-05-20T02:44:05.956Z,14.93
2019-05-20T02:46:34.919Z,16.17
2019-05-20T02:49:04.019Z,16.33
2019-05-20T02:51:33.313Z,16.57
2019-05-20T02:54:02.823Z,17.07
2019-05-20T02:56:32.001Z,15.70
2019-05-20T02:59:01.417Z,16.70
2019-05-20T03:01:30.463Z,15.47
2019-05-20T03:04:10.714Z,16.87
2019-05-20T03:06:30.128Z,15.60
2019-05-20T03:08:59.250Z,16.93
2019-05-20T03:11:28.140Z,15.70
2019-05-20T03:13:57.005Z,15.70
2019-05-20T03:16:25.963Z,17.13
2019-05-20T03:18:55.059Z,16.90
2019-05-20T03:21:24.267Z,15.73
2019-05-20T03:23:53.861Z,15.67
2019-05-20T03:26:22.789Z,15.70
2019-05-20T03:28:51.789Z,16.77
2019-05-20T03:31:20.859Z,16.27
2019-05-20T03:33:49.901Z,16.07
2019-05-20T03:36:19.058Z,17.73
2019-05-20T03:38:48.119Z,15.30
2019-05-20T03:41:17.139Z,16.33
2019-05-20T03:43:46.176Z,16.80
2019-05-20T03:46:15.127Z,17.10
2019-05-20T03:48:44.109Z,16.73
2019-05-20T03:51:13.123Z,16.23
2019-05-20T03:53:42.095Z,18.43
2019-05-20T03:56:11.127Z,17.13
2019-05-20T03:58:40.094Z,17.80
2019-05-20T04:01:09.302Z,16.23
2019-05-20T04:03:38.259Z,16.07
2019-05-20T04:06:07.220Z,17.03
2019-05-20T04:08:36.260Z,18.40
2019-05-20T04:11:05.291Z,18.60
2019-05-20T04:13:34.974Z,16.73
2019-05-20T04:16:04.192Z,15.97
2019-05-20T04:18:33.099Z,16.23
2019-05-20T04:21:02.083Z,16.27
2019-05-20T04:23:31.213Z,17.13
2019-05-20T04:26:00.241Z,16.47
2019-05-20T04:28:29.161Z,16.93
2019-05-20T04:30:58.221Z,16.77
2019-05-20T04:33:27.336Z,15.63
2019-05-20T04:35:56.368Z,16.20
2019-05-20T04:38:25.407Z,16.97
2019-05-20T04:40:54.283Z,16.30
2019-05-20T04:43:23.325Z,16.67
2019-05-20T04:45:52.275Z,16.57
2019-05-20T04:48:21.262Z,18.33
2019-05-20T04:50:50.215Z,18.23
2019-05-20T04:53:19.196Z,17.20
2019-05-20T04:55:48.184Z,17.80
2019-05-20T04:58:17.163Z,16.47
2019-05-20T05:00:54.849Z,16.53
2019-05-20T05:03:24.083Z,16.77
2019-05-20T05:05:53.409Z,15.20
2019-05-20T05:08:22.870Z,17.50
2019-05-20T05:10:52.273Z,17.90
2019-05-20T05:13:22.143Z,16.37
2019-05-20T05:15:51.464Z,17.67
2019-05-20T05:18:20.631Z,17.57
2019-05-20T05:20:49.672Z,19.03
2019-05-20T05:23:18.984Z,17.13
2019-05-20T05:25:47.948Z,18.00
2019-05-20T05:28:17.054Z,18.03
2019-05-20T05:30:47.527Z,17.80
2019-05-20T05:33:16.707Z,17.13
2019-05-20T05:35:53.389Z,18.97
2019-05-20T05:38:16.415Z,16.40
2019-05-20T05:40:45.307Z,17.70
2019-05-20T05:43:14.306Z,16.07
2019-05-20T05:45:43.273Z,14.87
2019-05-20T05:48:12.341Z,17.13
2019-05-20T05:50:41.378Z,14.87
2019-05-20T05:53:10.373Z,16.17
2019-05-20T05:55:39.268Z,15.67
2019-05-20T05:58:08.969Z,16.17
2019-05-20T06:00:38.232Z,15.27
2019-05-20T06:03:07.268Z,13.63
2019-05-20T06:05:36.305Z,14.80
2019-05-20T06:08:06.077Z,13.83
2019-05-20T06:10:36.081Z,14.33
2019-05-20T06:13:05.587Z,15.43
2019-05-20T06:15:34.643Z,14.30
2019-05-20T06:18:03.993Z,14.87
2019-05-20T06:20:33.034Z,15.63
2019-05-20T06:23:02.134Z,14.37
2019-05-20T06:25:31.184Z,15.20
2019-05-20T06:28:00.355Z,15.77
2019-05-20T06:30:41.858Z,13.53
2019-05-20T06:33:11.224Z,15.20
2019-05-20T06:35:40.550Z,16.87
2019-05-20T06:38:14.562Z,13.13
2019-05-20T06:40:43.459Z,14.07
2019-05-20T06:43:12.416Z,14.37
2019-05-20T06:45:41.472Z,14.73
2019-05-20T06:48:10.431Z,14.20
2019-05-20T06:50:39.495Z,14.77
2019-05-20T06:53:08.439Z,14.83
2019-05-20T06:55:37.494Z,13.93
2019-05-20T06:58:06.473Z,13.97
2019-05-20T07:00:36.691Z,14.23
2019-05-20T07:03:06.551Z,14.07
2019-05-20T07:05:35.522Z,13.10
2019-05-20T07:08:04.648Z,13.33
2019-05-20T07:10:33.747Z,12.47
2019-05-20T07:13:02.694Z,13.43
2019-05-20T07:15:31.666Z,13.53
2019-05-20T07:18:00.691Z,12.13
2019-05-20T07:20:29.655Z,12.40
2019-05-20T07:22:58.915Z,12.93
2019-05-20T07:25:28.057Z,13.03
2019-05-20T07:27:57.231Z,12.90
2019-05-20T07:30:26.332Z,14.37
2019-05-20T07:32:57.066Z,13.23
2019-05-20T07:35:30.798Z,13.37
2019-05-20T07:37:57.908Z,12.60
2019-05-20T07:40:33.975Z,12.27
2019-05-20T07:43:04.307Z,10.83
2019-05-20T07:45:36.357Z,12.43
2019-05-20T07:48:06.415Z,13.00
2019-05-20T07:50:38.818Z,10.93
2019-05-20T07:53:08.797Z,11.63
2019-05-20T07:55:42.727Z,11.77
2019-05-20T07:58:13.427Z,10.53
2019-05-20T08:00:42.757Z,11.93
2019-05-20T08:03:11.886Z,11.83
2019-05-20T08:05:41.021Z,11.07
2019-05-20T08:08:09.991Z,11.07
2019-05-20T08:10:38.922Z,10.70
2019-05-20T08:13:07.864Z,10.73
2019-05-20T08:15:36.876Z,10.97
2019-05-20T08:18:05.982Z,10.43
2019-05-20T08:20:35.022Z,10.40
2019-05-20T08:23:04.072Z,9.80
2019-05-20T08:25:33.137Z,10.60
2019-05-20T08:28:02.279Z,10.43
2019-05-20T08:30:34.151Z,11.43
2019-05-20T08:33:03.325Z,11.80
2019-05-20T08:35:32.382Z,10.57
2019-05-20T08:38:01.581Z,10.80
2019-05-20T08:40:30.698Z,10.47
2019-05-20T08:42:59.689Z,9.30
2019-05-20T08:45:28.835Z,9.73
2019-05-20T08:47:58.243Z,10.87
2019-05-20T08:50:27.372Z,9.73
2019-05-20T08:52:56.432Z,9.93
2019-05-20T08:55:25.533Z,9.50
2019-05-20T08:57:54.514Z,9.77
2019-05-20T09:00:24.550Z,10.13
2019-05-20T09:02:54.104Z,10.13
2019-05-20T09:05:23.106Z,10.17
2019-05-20T09:08:02.108Z,10.93
2019-05-20T09:10:23.016Z,10.47
2019-05-20T09:12:52.146Z,9.83
2019-05-20T09:15:22.232Z,10.40
2019-05-20T09:17:51.298Z,11.13
2019-05-20T09:20:20.611Z,10.77
2019-05-20T09:22:49.834Z,11.40
2019-05-20T09:25:23.007Z,11.17
2019-05-20T09:27:52.122Z,10.83
2019-05-20T09:30:21.758Z,12.10
2019-05-20T09:32:51.202Z,10.23
2019-05-20T09:35:20.109Z,9.80
2019-05-20T09:37:49.152Z,9.37
2019-05-20T09:40:35.193Z,10.57
2019-05-20T09:43:04.313Z,9.80
2019-05-20T09:45:33.526Z,9.67
2019-05-20T09:48:02.580Z,10.10
2019-05-20T09:50:33.266Z,9.33
2019-05-20T09:53:06.488Z,9.70
2019-05-20T09:55:33.324Z,9.47
2019-05-20T09:58:02.422Z,9.90
2019-05-20T10:00:31.523Z,10.20
2019-05-20T10:03:00.747Z,9.90
2019-05-20T10:05:29.907Z,9.37
2019-05-20T10:07:58.884Z,9.33
2019-05-20T10:10:28.131Z,10.17
2019-05-20T10:12:57.203Z,8.83
2019-05-20T10:15:26.582Z,8.50
2019-05-20T10:17:55.650Z,9.80
2019-05-20T10:20:24.765Z,9.23
2019-05-20T10:22:54.238Z,8.60
2019-05-20T10:25:23.476Z,8.97
2019-05-20T10:27:52.612Z,8.30
2019-05-20T10:30:21.792Z,7.73
2019-05-20T10:32:50.863Z,8.37
2019-05-20T10:35:20.256Z,8.23
2019-05-20T10:37:49.248Z,8.20
2019-05-20T10:40:18.403Z,7.37
2019-05-20T10:42:47.477Z,9.17
2019-05-20T10:45:16.963Z,8.10
2019-05-20T10:47:46.023Z,8.37
2019-05-20T10:50:15.576Z,8.30
2019-05-20T10:52:44.656Z,7.57
2019-05-20T10:55:13.860Z,7.43
2019-05-20T10:57:42.972Z,7.10
2019-05-20T11:00:12.488Z,6.87
2019-05-20T11:02:41.657Z,7.30
2019-05-20T11:05:10.843Z,7.50
2019-05-20T11:07:39.948Z,7.13
2019-05-20T11:10:10.224Z,7.33
2019-05-20T11:12:39.307Z,7.60
2019-05-20T11:15:09.479Z,7.50
2019-05-20T11:17:38.463Z,6.60
2019-05-20T11:20:08.020Z,7.83
2019-05-20T11:22:37.007Z,6.60
2019-05-20T11:25:06.116Z,7.03
2019-05-20T11:27:35.157Z,6.90
2019-05-20T11:30:04.799Z,6.50
2019-05-20T11:32:33.892Z,6.97
2019-05-20T11:35:03.031Z,6.83
2019-05-20T11:37:32.357Z,6.53
2019-05-20T11:40:01.324Z,6.57
2019-05-20T11:42:30.306Z,6.13
2019-05-20T11:44:59.281Z,7.00
2019-05-20T11:47:28.185Z,7.03
2019-05-20T11:49:57.080Z,6.03
2019-05-20T11:52:26.062Z,6.43
2019-05-20T11:54:54.979Z,5.20
2019-05-20T11:57:24.006Z,6.17
2019-05-20T11:59:53.183Z,5.40
2019-05-20T12:02:22.130Z,5.50
2019-05-20T12:04:51.048Z,6.03
2019-05-20T12:07:20.178Z,5.17
2019-05-20T12:09:50.264Z,6.43
2019-05-20T12:12:19.572Z,5.03
2019-05-20T12:14:48.697Z,5.10
2019-05-20T12:17:17.651Z,6.03
2019-05-20T12:19:46.736Z,5.23
2019-05-20T12:22:15.897Z,4.73
2019-05-20T12:24:44.998Z,4.83
2019-05-20T12:27:13.957Z,4.07
2019-05-20T12:29:42.902Z,5.00
2019-05-20T12:32:11.936Z,5.53
2019-05-20T12:34:41.010Z,5.03
2019-05-20T12:37:10.081Z,5.03
2019-05-20T12:39:39.075Z,5.37
2019-05-20T12:42:08.026Z,5.43
2019-05-20T12:44:37.192Z,5.40
2019-05-20T12:47:06.289Z,4.73
2019-05-20T12:49:35.436Z,4.83
2019-05-20T12:52:04.625Z,4.83
2019-05-20T12:54:33.656Z,5.00
2019-05-20T12:57:02.695Z,4.57
2019-05-20T12:59:31.700Z,4.63
2019-05-20T13:02:00.592Z,4.47
2019-05-20T13:04:29.583Z,4.57
2019-05-20T13:06:58.451Z,4.73
2019-05-20T13:09:27.470Z,4.40
2019-05-20T13:11:56.362Z,5.53
2019-05-20T13:14:25.305Z,5.00
2019-05-20T13:16:54.198Z,5.30
2019-05-20T13:19:23.267Z,5.50
2019-05-20T13:21:52.233Z,4.43
2019-05-20T13:24:21.196Z,4.90
2019-05-20T13:26:50.155Z,4.53
2019-05-20T13:29:19.158Z,5.30
2019-05-20T13:31:48.099Z,5.37
2019-05-20T13:34:18.593Z,6.00
2019-05-20T13:36:47.860Z,5.23
2019-05-20T13:39:16.774Z,5.60
2019-05-20T13:41:45.888Z,6.33
2019-05-20T13:44:14.847Z,5.70
2019-05-20T13:46:43.729Z,5.03
2019-05-20T13:49:12.689Z,5.53
2019-05-20T13:51:41.657Z,5.20
2019-05-20T13:54:10.790Z,6.37
2019-05-20T13:56:40.030Z,6.43
2019-05-20T13:59:09.023Z,7.00
2019-05-20T14:01:38.064Z,6.07
2019-05-20T14:04:07.168Z,5.30
2019-05-20T14:06:36.195Z,6.53
2019-05-20T14:09:07.547Z,6.17
2019-05-20T14:11:36.774Z,6.03
2019-05-20T14:14:05.866Z,5.20
2019-05-20T14:16:34.829Z,6.13
2019-05-20T14:19:03.859Z,6.07
2019-05-20T14:21:32.879Z,5.67
2019-05-20T14:24:01.909Z,5.77
2019-05-20T14:26:30.875Z,5.17
2019-05-20T14:28:59.919Z,5.80
2019-05-20T14:31:28.868Z,5.53
2019-05-20T14:33:57.794Z,5.30
2019-05-20T14:36:39.351Z,5.33
2019-05-20T14:38:57.403Z,5.57
2019-05-20T14:41:26.367Z,6.47
2019-05-20T14:43:55.262Z,4.77
2019-05-20T14:46:24.179Z,5.60
2019-05-20T14:48:53.203Z,5.13
2019-05-20T14:51:22.102Z,5.00
2019-05-20T14:53:51.130Z,5.50
2019-05-20T14:56:20.183Z,6.33
2019-05-20T14:58:49.176Z,5.93
2019-05-20T15:01:18.269Z,6.03
2019-05-20T15:03:47.306Z,5.20
2019-05-20T15:06:16.451Z,5.90
2019-05-20T15:08:45.402Z,5.47
2019-05-20T15:11:14.454Z,4.93
2019-05-20T15:13:43.435Z,4.70
2019-05-20T15:16:12.520Z,5.30
2019-05-20T15:18:41.528Z,5.30
2019-05-20T15:21:10.653Z,5.03
2019-05-20T15:23:39.750Z,5.23
2019-05-20T15:26:09.010Z,5.60
2019-05-20T15:28:38.097Z,5.73
2019-05-20T15:31:07.140Z,5.63
2019-05-20T15:33:36.103Z,5.17
2019-05-20T15:36:05.115Z,5.80
2019-05-20T15:38:34.115Z,5.60
2019-05-20T15:41:03.088Z,4.77
2019-05-20T15:43:31.974Z,5.20
2019-05-20T15:46:01.071Z,5.37
2019-05-20T15:48:30.164Z,5.23
2019-05-20T15:50:59.154Z,5.50
2019-05-20T15:53:28.105Z,4.67
2019-05-20T15:55:57.226Z,5.00
2019-05-20T15:58:26.245Z,4.93
2019-05-20T16:00:55.235Z,5.10
2019-05-20T16:03:24.309Z,5.70
2019-05-20T16:05:53.426Z,6.63
2019-05-20T16:08:22.310Z,7.80
2019-05-20T16:10:51.254Z,8.60
2019-05-20T16:13:20.239Z,8.70
2019-05-20T16:15:49.230Z,9.27
2019-05-20T16:18:18.572Z,9.47
2019-05-20T16:20:47.763Z,9.60
2019-05-20T16:23:16.856Z,9.50
2019-05-20T16:25:45.939Z,9.83
2019-05-20T16:28:14.874Z,9.90
2019-05-20T16:30:43.817Z,10.07
2019-05-20T16:33:12.952Z,11.53
2019-05-20T16:35:42.063Z,9.70
2019-05-20T16:38:11.099Z,10.63
2019-05-20T16:40:40.156Z,9.50
2019-05-20T16:43:09.048Z,9.67
2019-05-20T16:45:37.978Z,9.83
2019-05-20T16:48:07.611Z,10.57
2019-05-20T16:50:36.692Z,9.17
2019-05-20T16:53:05.936Z,9.07
2019-05-20T16:55:34.916Z,8.93
2019-05-20T16:58:03.989Z,9.60
2019-05-20T17:00:33.009Z,9.30
2019-05-20T17:03:02.108Z,9.60
2019-05-20T17:05:31.189Z,10.57
2019-05-20T17:08:00.272Z,9.50
2019-05-20T17:10:29.227Z,9.53
2019-05-20T17:12:58.220Z,9.50
2019-05-20T17:15:27.219Z,9.40
2019-05-20T17:17:56.344Z,10.73
2019-05-20T17:20:25.422Z,9.40
2019-05-20T17:22:54.730Z,10.77
2019-05-20T17:25:23.949Z,9.57
2019-05-20T17:27:53.002Z,9.10
2019-05-20T17:30:21.963Z,9.27
2019-05-20T17:32:50.955Z,10.07
2019-05-20T17:35:20.097Z,8.90
2019-05-20T17:37:49.092Z,8.80
2019-05-20T17:40:18.813Z,8.27
2019-05-20T17:42:47.882Z,8.30
2019-05-20T17:45:17.575Z,8.23
2019-05-20T17:47:46.685Z,8.90
2019-05-20T17:50:17.686Z,8.93
2019-05-20T17:52:46.811Z,9.57
2019-05-20T17:55:16.287Z,9.87
2019-05-20T17:57:45.405Z,9.90
2019-05-20T18:00:19.061Z,9.03
2019-05-20T18:02:48.199Z,8.43
2019-05-20T18:05:17.631Z,8.40
2019-05-20T18:07:46.799Z,9.27
2019-05-20T18:10:18.520Z,7.93
2019-05-20T18:12:47.652Z,9.37
2019-05-20T18:15:17.938Z,8.00
2019-05-20T18:17:46.985Z,8.70
2019-05-20T18:20:16.715Z,8.63
2019-05-20T18:22:46.010Z,8.10
2019-05-20T18:25:15.433Z,8.57
2019-05-20T18:27:44.405Z,9.30
2019-05-20T18:30:14.259Z,8.63
2019-05-20T18:32:43.306Z,9.17
2019-05-20T18:35:12.632Z,8.27
2019-05-20T18:37:41.715Z,7.93
2019-05-20T18:40:14.425Z,8.03
2019-05-20T18:42:42.242Z,8.70
2019-05-20T18:45:11.988Z,8.83
2019-05-20T18:47:41.141Z,9.10
2019-05-20T18:50:10.666Z,9.83
2019-05-20T18:52:39.854Z,8.43
2019-05-20T18:55:08.936Z,9.20
2019-05-20T18:57:38.094Z,8.83
2019-05-20T19:00:08.635Z,9.10
2019-05-20T19:02:37.765Z,9.20
2019-05-20T19:05:07.663Z,9.73
2019-05-20T19:07:36.798Z,8.60
2019-05-20T19:10:06.954Z,9.67
2019-05-20T19:12:36.011Z,9.53
2019-05-20T19:15:05.756Z,9.23
2019-05-20T19:17:35.534Z,9.43
2019-05-20T19:20:05.133Z,10.27
2019-05-20T19:22:34.314Z,9.37
2019-05-20T19:25:05.034Z,10.20
2019-05-20T19:27:34.128Z,11.13
2019-05-20T19:30:03.191Z,11.40
2019-05-20T19:32:32.178Z,9.83
2019-05-20T19:35:01.143Z,10.40
2019-05-20T19:37:30.260Z,10.43
2019-05-20T19:39:59.235Z,10.10
2019-05-20T19:42:28.286Z,11.20
2019-05-20T19:44:57.344Z,10.00
2019-05-20T19:47:26.433Z,11.27
2019-05-20T19:49:56.683Z,10.60
2019-05-20T19:52:25.592Z,10.77
2019-05-20T19:54:54.474Z,9.80
2019-05-20T19:57:23.483Z,10.00
2019-05-20T19:59:52.673Z,11.40
2019-05-20T20:02:21.847Z,11.63
2019-05-20T20:04:51.050Z,10.47
2019-05-20T20:07:20.104Z,10.13
2019-05-20T20:09:49.110Z,10.03
2019-05-20T20:12:18.216Z,9.70
2019-05-20T20:14:47.215Z,9.30
2019-05-20T20:17:16.447Z,8.93
2019-05-20T20:19:45.607Z,10.77
2019-05-20T20:22:14.588Z,10.53
2019-05-20T20:24:43.679Z,9.33
2019-05-20T20:27:12.806Z,10.37
2019-05-20T20:29:41.836Z,10.13
2019-05-20T20:32:10.912Z,10.43
2019-05-20T20:34:39.970Z,9.53
2019-05-20T20:37:09.062Z,9.97
2019-05-20T20:39:38.147Z,11.07
2019-05-20T20:42:07.042Z,9.90
2019-05-20T20:44:36.030Z,8.83
2019-05-20T20:47:05.078Z,10.23
2019-05-20T20:49:34.219Z,9.63
2019-05-20T20:52:03.430Z,9.57
2019-05-20T20:54:32.555Z,9.07
2019-05-20T20:57:01.939Z,10.07
2019-05-20T20:59:31.012Z,11.87
2019-05-20T21:02:01.665Z,11.20
2019-05-20T21:04:30.639Z,11.00
2019-05-20T21:06:59.732Z,10.50
2019-05-20T21:09:28.837Z,11.90
2019-05-20T21:11:57.848Z,12.33
2019-05-20T21:14:26.854Z,12.27
2019-05-20T21:16:55.763Z,11.97
2019-05-20T21:19:24.803Z,13.33
2019-05-20T21:21:53.902Z,12.30
2019-05-20T21:24:23.042Z,11.17
2019-05-20T21:26:52.010Z,11.30
2019-05-20T21:29:21.160Z,11.90
2019-05-20T21:31:50.154Z,11.60
2019-05-20T21:34:19.098Z,11.73
2019-05-20T21:36:48.423Z,12.47
2019-05-20T21:39:17.587Z,12.43
2019-05-20T21:41:46.794Z,12.57
2019-05-20T21:44:15.804Z,12.27
2019-05-20T21:46:46.294Z,12.20
2019-05-20T21:49:15.995Z,12.70
2019-05-20T21:51:46.045Z,11.57
2019-05-20T21:54:14.989Z,11.57
2019-05-20T21:56:44.075Z,12.67
2019-05-20T21:59:13.316Z,12.47
2019-05-20T22:01:42.443Z,13.87
2019-05-20T22:04:11.594Z,12.93
2019-05-20T22:06:40.700Z,12.77
2019-05-20T22:09:09.899Z,12.80
2019-05-20T22:11:38.993Z,13.10
2019-05-20T22:14:08.299Z,11.90
2019-05-20T22:16:37.935Z,12.87
2019-05-20T22:19:07.115Z,12.13
2019-05-20T22:21:51.611Z,12.40
2019-05-20T22:24:20.715Z,12.10
2019-05-20T22:26:49.894Z,12.20
2019-05-20T22:29:18.933Z,11.80
2019-05-20T22:31:47.938Z,11.20
2019-05-20T22:34:16.947Z,12.13
2019-05-20T22:36:46.035Z,13.60
2019-05-20T22:39:15.211Z,11.50
2019-05-20T22:41:44.297Z,11.43
2019-05-20T22:44:13.573Z,12.40
2019-05-20T22:46:42.734Z,13.57
2019-05-20T22:49:11.968Z,11.63
2019-05-20T22:51:42.061Z,12.67
2019-05-20T22:54:15.342Z,11.80
2019-05-20T22:56:45.336Z,12.33
2019-05-20T22:59:15.439Z,12.30
2019-05-20T23:01:45.603Z,10.87
2019-05-20T23:04:17.739Z,11.30
2019-05-20T23:06:47.749Z,11.40
2019-05-20T23:09:17.969Z,12.00
2019-05-20T23:11:48.418Z,11.50
2019-05-20T23:14:18.495Z,11.87
2019-05-20T23:16:48.382Z,11.23
2019-05-20T23:19:18.895Z,11.70
2019-05-20T23:21:49.197Z,13.27
2019-05-20T23:24:18.929Z,10.60
2019-05-20T23:26:49.292Z,12.00
2019-05-20T23:29:19.433Z,12.03
2019-05-20T23:31:49.099Z,13.07
2019-05-20T23:34:19.421Z,12.73
2019-05-20T23:36:49.647Z,12.63
2019-05-20T23:39:19.788Z,12.53
2019-05-20T23:41:50.048Z,11.37
2019-05-20T23:44:20.249Z,12.77
2019-05-20T23:46:50.208Z,11.93
2019-05-20T23:49:20.819Z,11.73
2019-05-20T23:51:51.127Z,12.20
2019-05-20T23:54:21.358Z,11.97
2019-05-20T23:56:51.598Z,11.33
2019-05-20T23:59:23.016Z,11.23
